Airfield :







YOU CAN JOIN US ON...

 
LOGIN :

Register | Disclaimer

   EN    FR    IT 

 









Legend :    VFR   Marginal VFR   IFR   Intensive IFR   Very Intensive IFR
Visi :
Ceiling :
>= 8 km
>= 3000ft
5 to 8 km
1000 to 3000 ft
1500m to 5 km
500 to 1000 ft
800 to 1500m
200 to 500 ft
< 800m
< 200 ft
Symbols :   Thunderstorms  Fog  Heavy snow  Heavy precipitations  Wind > 20 kt






- Airport Elevation : 586 ft
- IATA code : YRJ


CYRJ - Roberval

CURRENT METAR :
  • 151516Z 28021G30KT 3SM -SN BLSN OVC032 M06/M10 A2904 RMK SC8 SLP844

EXPIRED METARs :
  • 151500Z 28018G32KT 4SM -SN BLSN OVC028 M06/M10 A2903 RMK SC8 PRESRR SLP841
  • 151439Z 28021G32KT 3SM -SN BLSN OVC036 M06/M10 A2901 RMK SC8 PRESRR SLP834
  • 151427Z 28016G29KT 2SM -SN BLSN OVC023 VV024 M06/M09 A2899 RMK SC5SN3 PRESRR SLP829
  • 151409Z 27019G26KT 1SM -SN BLSN VV018 M05/M08 A2897 RMK SN8 PRESRR SLP822
  • 151400Z 27022G37KT 2SM -SN BLSN VV022 M05/M08 A2896 RMK SN8 SLP816
  • 151339Z 28018G27KT 3SM -SN BLSN OVC034 M04/M07 A2893 RMK SC8 PRESRR SLP807
  • 151305Z 26015G26KT 6SM -SN BLSN FEW027 OVC060 M02/M05 A2889 RMK SC2SC6 PRESRR SLP793

TAF AMD TAF CYRJ
Valid from the 15 at 14:00 until the 16 at 01:00 UTC


151411Z 1514/1601 27020G35KT P6SM SCT020 BKN040
TEMPO 1514/1518 2SM -SN BLSN VV020
FM151800 28025G35KT 21/2SM -SN BLSN VV015
TEMPO 1518/1521 6SM -SN OVC025
FM152100 28020G35KT 6SM -SN OVC030
TEMPO 1521/1601 21/2SM -SN BLSN VV015 RMK NXT FCST BY 152000Z



MET'MAP, your aeronautical weather chart ! - Copyright ORBIFLY December 2007 - Disclaimer

ORBIFLY MET'MAP TEAM :

Programming & Development : Alexandra Zaïnal
Concept & original design : Baudouin d'Aumeries
Assistance for programming : Marc-Olivier Méhu
Technical & hardware support : Manuel Goepfert

Contact : metmap@orbifly.com




SOURCES & CREDITS :

   NOAA